This is the latest recevied weather packets stored in our database for station/object KM5R. If no packets are shown the sender has not sent any weather packets the latest 10 day(s).
| Time | Temp. | Humidity | Pressure | Rain* | Wind** | Luminosity | Snow |
|---|---|---|---|---|---|---|---|
| 1777752931 | 22.22° C | 38% | 1022.9 hPa | 0 mm | - | 754 W/m² | - |
| 1777752628 | 22.22° C | 36% | 1023 hPa | 0 mm | - | 745 W/m² | - |
| 1777752324 | 22.22° C | 39% | 1022.8 hPa | 0 mm | - | 738 W/m² | - |
| 1777752022 | 21.67° C | 38% | 1023 hPa | 0 mm | - | 746 W/m² | - |
| 1777751720 | 21.67° C | 40% | 1023 hPa | 0 mm | - | 775 W/m² | - |
| 1777751415 | 21.67° C | 39% | 1023 hPa | 0 mm | - | 784 W/m² | - |
| 1777751113 | 21.67° C | 39% | 1023.2 hPa | 0 mm | - | 759 W/m² | - |
| 1777750506 | 22.22° C | 40% | 1023 hPa | 0 mm | - | 786 W/m² | - |
| 1777750202 | 22.22° C | 40% | 1023.1 hPa | 0 mm | - | 774 W/m² | - |
| 1777749898 | 21.11° C | 41% | 1023.1 hPa | 0 mm | - | 789 W/m² | - |
| 1777749595 | 20.56° C | 38% | 1023 hPa | 0 mm | - | 791 W/m² | - |
| 1777749293 | 21.67° C | 40% | 1023.3 hPa | 0 mm | - | 337 W/m² | - |
| 1777748688 | 21.67° C | 41% | 1023.2 hPa | 0 mm | - | 206 W/m² | - |
| 1777748384 | 21.11° C | 41% | 1023.3 hPa | 0 mm | - | 811 W/m² | - |
| 1777748079 | 21.11° C | 40% | 1023.3 hPa | 0 mm | - | 822 W/m² | - |
| 1777747472 | 21.11° C | 45% | 1023.3 hPa | 0 mm | - | 867 W/m² | - |
| 1777746865 | 21.67° C | 43% | 1023.7 hPa | 0 mm | - | 796 W/m² | - |
| 1777746560 | 21.11° C | 45% | 1023.5 hPa | 0 mm | - | 793 W/m² | - |
| 1777746256 | 21.11° C | 44% | 1023.7 hPa | 0 mm | - | 795 W/m² | - |
| 1777745952 | 20.56° C | 45% | 1023.9 hPa | 0 mm | - | 782 W/m² | - |
| 1777745651 | 20.56° C | 46% | 1024.1 hPa | 0 mm | - | 770 W/m² | - |
| 1777745349 | 20.56° C | 44% | 1023.8 hPa | 0 mm | - | 767 W/m² | - |
| 1777745046 | 20.56° C | 43% | 1024.2 hPa | 0 mm | - | 768 W/m² | - |
| 1777744741 | 20.56° C | 46% | 1024.4 hPa | 0 mm | - | 765 W/m² | - |
| 1777744133 | 20.56° C | 43% | 1024.4 hPa | 0 mm | - | 757 W/m² | - |
* Rain latest hour (hover to see other rain measurements)
** Current wind speed in m/s (hover to see current wind gust speed)